createdAt,value
2018-02-08T00:02:07.490Z,-3.70
2018-02-08T00:04:36.616Z,-3.70
2018-02-08T00:07:04.993Z,-3.80
2018-02-08T00:09:33.368Z,-3.80
2018-02-08T00:12:01.769Z,-3.80
2018-02-08T00:14:30.255Z,-3.70
2018-02-08T00:16:58.613Z,-3.70
2018-02-08T00:19:26.947Z,-3.80
2018-02-08T00:21:56.076Z,-3.70
2018-02-08T00:24:24.422Z,-3.80
2018-02-08T00:26:53.530Z,-3.70
2018-02-08T00:29:22.649Z,-3.70
2018-02-08T00:31:50.991Z,-3.80
2018-02-08T00:34:20.122Z,-3.80
2018-02-08T00:36:48.468Z,-3.80
2018-02-08T00:39:17.603Z,-3.80
2018-02-08T00:41:45.952Z,-3.80
2018-02-08T00:44:15.049Z,-3.80
2018-02-08T00:46:44.175Z,-3.80
2018-02-08T00:49:12.607Z,-3.80
2018-02-08T00:51:40.963Z,-3.80
2018-02-08T00:54:09.304Z,-3.80
2018-02-08T00:56:37.752Z,-3.80
2018-02-08T00:59:06.891Z,-3.80
2018-02-08T01:01:35.223Z,-3.90
2018-02-08T01:04:03.608Z,-3.90
2018-02-08T01:06:31.946Z,-3.90
2018-02-08T01:09:00.313Z,-3.90
2018-02-08T01:11:28.684Z,-3.90
2018-02-08T01:13:57.051Z,-4.00
2018-02-08T01:16:25.498Z,-4.00
2018-02-08T01:18:53.844Z,-4.00
2018-02-08T01:21:22.196Z,-4.00
2018-02-08T01:23:50.585Z,-4.10
2018-02-08T01:26:18.960Z,-4.10
2018-02-08T01:28:47.310Z,-4.10
2018-02-08T01:31:16.631Z,-4.20
2018-02-08T01:33:45.035Z,-4.20
2018-02-08T01:36:13.363Z,-4.20
2018-02-08T01:38:42.480Z,-4.20
2018-02-08T01:41:10.875Z,-4.30
2018-02-08T01:43:39.232Z,-4.20
2018-02-08T01:46:07.581Z,-4.20
2018-02-08T01:48:36.520Z,-4.30
2018-02-08T01:51:04.927Z,-4.30
2018-02-08T01:53:33.268Z,-4.30
2018-02-08T01:56:01.624Z,-4.30
2018-02-08T01:58:30.730Z,-4.40
2018-02-08T02:00:59.856Z,-4.30
2018-02-08T02:03:28.222Z,-4.40
2018-02-08T02:05:56.781Z,-4.40
2018-02-08T02:08:25.123Z,-4.40
2018-02-08T02:10:53.479Z,-4.40
2018-02-08T02:13:21.827Z,-4.40
2018-02-08T02:15:50.204Z,-4.40
2018-02-08T02:18:19.325Z,-4.50
2018-02-08T02:20:47.694Z,-4.50
2018-02-08T02:23:17.525Z,-4.50
2018-02-08T02:25:45.895Z,-4.50
2018-02-08T02:28:14.244Z,-4.50
2018-02-08T02:30:43.355Z,-4.60
2018-02-08T02:33:11.709Z,-4.60
2018-02-08T02:35:40.592Z,-4.60
2018-02-08T02:38:08.945Z,-4.60
2018-02-08T02:40:37.296Z,-4.60
2018-02-08T02:43:05.635Z,-4.60
2018-02-08T02:45:33.982Z,-4.60
2018-02-08T02:48:02.346Z,-4.60
2018-02-08T02:50:30.705Z,-4.60
2018-02-08T02:52:59.091Z,-4.60
2018-02-08T02:55:27.436Z,-4.60
2018-02-08T02:57:56.627Z,-4.60
2018-02-08T03:00:25.740Z,-4.70
2018-02-08T03:02:54.874Z,-4.70
2018-02-08T03:05:23.441Z,-4.70
2018-02-08T03:07:51.769Z,-4.70
2018-02-08T03:10:20.150Z,-4.70
2018-02-08T03:12:48.491Z,-4.70
2018-02-08T03:15:16.851Z,-4.80
2018-02-08T03:17:45.323Z,-4.70
2018-02-08T03:20:13.945Z,-4.80
2018-02-08T03:22:42.275Z,-4.80
2018-02-08T03:25:11.407Z,-4.70
2018-02-08T03:27:39.790Z,-4.70
2018-02-08T03:30:08.129Z,-4.80
2018-02-08T03:32:37.248Z,-4.80
2018-02-08T03:35:05.596Z,-4.80
2018-02-08T03:37:34.743Z,-4.80
2018-02-08T03:40:03.126Z,-4.90
2018-02-08T03:42:31.509Z,-4.90
2018-02-08T03:44:59.871Z,-4.90
2018-02-08T03:47:28.211Z,-4.90
2018-02-08T03:49:57.340Z,-4.90
2018-02-08T03:52:25.718Z,-4.90
2018-02-08T03:54:54.812Z,-4.90
2018-02-08T03:57:23.151Z,-4.90
2018-02-08T03:59:51.582Z,-4.90
2018-02-08T04:02:19.940Z,-4.90
2018-02-08T04:04:48.359Z,-5.00
2018-02-08T04:07:16.718Z,-5.00
2018-02-08T04:09:45.064Z,-5.00
2018-02-08T04:12:14.189Z,-5.00
2018-02-08T04:14:42.572Z,-5.00
2018-02-08T04:17:10.956Z,-5.00
2018-02-08T04:19:39.308Z,-5.00
2018-02-08T04:22:07.743Z,-5.00
2018-02-08T04:24:36.183Z,-5.00
2018-02-08T04:27:04.519Z,-4.90
2018-02-08T04:29:32.863Z,-4.90
2018-02-08T04:32:01.223Z,-4.90
2018-02-08T04:34:30.220Z,-4.90
2018-02-08T04:36:58.613Z,-4.90
2018-02-08T04:39:38.922Z,-4.80
2018-02-08T04:42:19.892Z,-4.70
2018-02-08T04:45:00.250Z,-4.80
2018-02-08T04:47:34.392Z,-4.70
2018-02-08T04:50:02.736Z,-4.70
2018-02-08T04:52:31.102Z,-4.70
2018-02-08T04:54:59.443Z,-4.60
2018-02-08T04:57:27.827Z,-4.70
2018-02-08T04:59:56.312Z,-4.70
2018-02-08T05:02:24.652Z,-4.70
2018-02-08T05:04:53.036Z,-4.80
2018-02-08T05:07:22.142Z,-4.80
2018-02-08T05:09:50.536Z,-4.90
2018-02-08T05:12:18.925Z,-4.90
2018-02-08T05:14:47.302Z,-4.90
2018-02-08T05:17:15.668Z,-4.90
2018-02-08T05:19:44.007Z,-4.90
2018-02-08T05:22:12.555Z,-4.90
2018-02-08T05:24:40.915Z,-4.90
2018-02-08T05:27:09.269Z,-4.90
2018-02-08T05:29:38.383Z,-5.00
2018-02-08T05:32:06.788Z,-5.00
2018-02-08T05:34:35.151Z,-5.00
2018-02-08T05:37:03.491Z,-5.10
2018-02-08T05:39:32.626Z,-5.10
2018-02-08T05:42:01.063Z,-5.10
2018-02-08T05:44:29.407Z,-5.10
2018-02-08T05:46:57.762Z,-5.10
2018-02-08T05:49:26.147Z,-5.10
2018-02-08T05:51:54.502Z,-5.10
2018-02-08T05:54:22.858Z,-5.10
2018-02-08T05:56:51.299Z,-5.10
2018-02-08T05:59:19.637Z,-5.10
2018-02-08T06:01:48.030Z,-5.10
2018-02-08T06:04:16.439Z,-5.10
2018-02-08T06:06:44.800Z,-5.00
2018-02-08T06:09:13.192Z,-5.00
2018-02-08T06:11:41.566Z,-4.90
2018-02-08T06:14:09.931Z,-4.80
2018-02-08T06:16:38.322Z,-4.60
2018-02-08T06:19:06.704Z,-4.50
2018-02-08T06:21:35.079Z,-4.40
2018-02-08T06:24:03.451Z,-4.30
2018-02-08T06:26:31.839Z,-4.20
2018-02-08T06:29:00.175Z,-4.10
2018-02-08T06:31:29.419Z,-3.90
2018-02-08T06:33:57.903Z,-3.90
2018-02-08T06:36:26.238Z,-3.90
2018-02-08T06:38:55.368Z,-3.70
2018-02-08T06:41:23.756Z,-3.80
2018-02-08T06:43:52.132Z,-3.70
2018-02-08T06:46:20.508Z,-3.60
2018-02-08T06:48:49.004Z,-3.60
2018-02-08T06:51:17.356Z,-3.50
2018-02-08T06:53:45.755Z,-3.50
2018-02-08T06:56:14.115Z,-3.40
2018-02-08T06:58:42.463Z,-3.40
2018-02-08T07:01:10.824Z,-3.30
2018-02-08T07:03:39.200Z,-3.30
2018-02-08T07:06:07.569Z,-3.30
2018-02-08T07:08:35.906Z,-3.30
2018-02-08T07:11:04.693Z,-3.30
2018-02-08T07:13:33.811Z,-3.30
2018-02-08T07:16:02.171Z,-3.20
2018-02-08T07:18:30.518Z,-3.30
2018-02-08T07:20:58.864Z,-3.20
2018-02-08T07:23:27.236Z,-3.20
2018-02-08T07:25:55.585Z,-3.20
2018-02-08T07:28:23.923Z,-3.10
2018-02-08T07:30:52.283Z,-3.00
2018-02-08T07:33:20.628Z,-3.00
2018-02-08T07:35:49.004Z,-3.00
2018-02-08T07:38:17.396Z,-2.90
2018-02-08T07:40:45.776Z,-2.80
2018-02-08T07:43:14.159Z,-2.80
2018-02-08T07:45:42.492Z,-2.80
2018-02-08T07:48:11.630Z,-2.60
2018-02-08T07:50:40.094Z,-2.60
2018-02-08T07:53:08.455Z,-2.60
2018-02-08T07:55:36.786Z,-2.60
2018-02-08T07:58:05.152Z,-2.60
2018-02-08T08:00:33.488Z,-2.50
2018-02-08T08:03:01.827Z,-2.50
2018-02-08T08:05:30.263Z,-2.50
2018-02-08T08:07:58.664Z,-2.50
2018-02-08T08:10:27.015Z,-2.40
2018-02-08T08:12:56.213Z,-2.40
2018-02-08T08:15:25.352Z,-2.40
2018-02-08T08:17:53.704Z,-2.50
2018-02-08T08:20:22.128Z,-2.30
2018-02-08T08:22:50.466Z,-2.20
2018-02-08T08:25:18.855Z,-2.10
2018-02-08T08:27:47.206Z,-2.00
2018-02-08T08:30:16.323Z,-1.80
2018-02-08T08:32:44.732Z,-1.80
2018-02-08T08:35:13.807Z,-1.50
2018-02-08T08:37:42.815Z,-1.50
2018-02-08T08:40:11.167Z,-1.40
2018-02-08T08:42:39.534Z,-1.30
2018-02-08T08:45:08.658Z,-1.20
2018-02-08T08:47:37.004Z,-1.20
2018-02-08T08:50:06.131Z,-1.00
2018-02-08T08:52:34.601Z,-1.00
2018-02-08T08:55:02.961Z,-1.00
2018-02-08T08:57:31.537Z,-0.90
2018-02-08T08:59:59.875Z,-0.80
2018-02-08T09:02:28.230Z,-0.80
2018-02-08T09:04:56.575Z,-0.70
2018-02-08T09:07:25.704Z,-0.50
2018-02-08T09:09:54.089Z,-0.50
2018-02-08T09:12:22.780Z,-0.50
2018-02-08T09:14:51.160Z,-0.60
2018-02-08T09:17:19.518Z,-0.60
2018-02-08T09:19:47.886Z,-0.70
2018-02-08T09:22:17.001Z,-0.60
2018-02-08T09:24:45.356Z,-0.70
2018-02-08T09:27:14.467Z,-0.70
2018-02-08T09:29:42.829Z,-0.70
2018-02-08T09:32:11.961Z,-0.80
2018-02-08T09:34:40.312Z,-0.80
2018-02-08T09:37:09.434Z,-0.80
2018-02-08T09:39:38.425Z,-0.80
2018-02-08T09:42:06.805Z,-0.70
2018-02-08T09:44:35.149Z,-0.60
2018-02-08T09:47:04.276Z,-0.70
2018-02-08T09:49:32.633Z,-0.70
2018-02-08T09:52:01.744Z,-0.70
2018-02-08T09:54:30.101Z,-0.70
2018-02-08T09:56:59.227Z,-0.60
2018-02-08T09:59:27.621Z,-0.60
2018-02-08T10:01:55.983Z,-0.50
2018-02-08T10:04:24.344Z,-0.40
2018-02-08T10:06:53.455Z,-0.20
2018-02-08T10:09:21.796Z,-0.20
2018-02-08T10:11:50.147Z,0.00
2018-02-08T10:14:18.492Z,0.10
2018-02-08T10:16:46.871Z,0.20
2018-02-08T10:19:15.362Z,0.30
2018-02-08T10:21:43.856Z,0.30
2018-02-08T10:24:12.220Z,0.30
2018-02-08T10:26:40.685Z,0.20
2018-02-08T10:29:10.025Z,0.30
2018-02-08T10:31:38.359Z,0.30
2018-02-08T10:34:07.468Z,0.60
2018-02-08T10:36:35.803Z,0.50
2018-02-08T10:39:04.164Z,0.70
2018-02-08T10:41:32.500Z,0.80
2018-02-08T10:44:00.899Z,0.80
2018-02-08T10:46:29.296Z,1.00
2018-02-08T10:48:57.660Z,1.10
2018-02-08T10:51:26.025Z,1.30
2018-02-08T10:53:54.408Z,1.40
2018-02-08T10:56:22.802Z,1.50
2018-02-08T10:58:51.163Z,1.60
2018-02-08T11:01:19.685Z,1.70
2018-02-08T11:03:48.032Z,1.90
2018-02-08T11:06:16.386Z,2.00
2018-02-08T11:08:45.495Z,2.10
2018-02-08T11:11:13.884Z,2.10
2018-02-08T11:13:42.247Z,2.20
2018-02-08T11:16:10.591Z,2.20
2018-02-08T11:18:39.363Z,2.30
2018-02-08T11:21:07.832Z,2.30
2018-02-08T11:23:36.204Z,2.40
2018-02-08T11:26:04.552Z,2.50
2018-02-08T11:28:33.660Z,2.60
2018-02-08T11:31:02.436Z,2.60
2018-02-08T11:33:31.536Z,2.80
2018-02-08T11:36:00.708Z,2.80
2018-02-08T11:38:29.227Z,2.80
2018-02-08T11:40:57.593Z,2.90
2018-02-08T11:43:25.961Z,2.90
2018-02-08T11:45:55.080Z,2.90
2018-02-08T11:48:23.427Z,2.90
2018-02-08T11:50:52.539Z,2.90
2018-02-08T11:53:21.655Z,3.00
2018-02-08T11:55:50.003Z,3.00
2018-02-08T11:58:19.132Z,3.00
2018-02-08T12:00:47.475Z,3.00
2018-02-08T12:03:16.432Z,3.10
2018-02-08T12:05:44.776Z,3.30
2018-02-08T12:08:13.119Z,3.40
2018-02-08T12:10:42.341Z,3.50
2018-02-08T12:13:11.435Z,3.80
2018-02-08T12:15:39.850Z,3.80
2018-02-08T12:18:08.799Z,3.80
2018-02-08T12:20:37.906Z,3.70
2018-02-08T12:23:07.052Z,3.70
2018-02-08T12:25:35.433Z,3.70
2018-02-08T12:28:03.795Z,3.60
2018-02-08T12:30:32.133Z,3.60
2018-02-08T12:33:00.484Z,3.50
2018-02-08T12:35:28.831Z,3.60
2018-02-08T12:37:57.177Z,3.60
2018-02-08T12:40:26.291Z,3.40
2018-02-08T12:42:54.646Z,3.30
2018-02-08T12:45:23.772Z,3.00
2018-02-08T12:47:52.114Z,2.90
2018-02-08T12:50:21.222Z,2.70
2018-02-08T12:52:50.331Z,2.60
2018-02-08T12:55:18.737Z,2.60
2018-02-08T12:57:47.033Z,2.50
2018-02-08T13:00:15.379Z,2.70
2018-02-08T13:02:43.921Z,3.00
2018-02-08T13:05:12.290Z,2.90
2018-02-08T13:07:40.612Z,2.80
2018-02-08T13:10:08.968Z,2.60
2018-02-08T13:12:37.291Z,2.60
2018-02-08T13:15:05.643Z,2.80
2018-02-08T13:17:33.983Z,2.50
2018-02-08T13:20:02.741Z,2.70
2018-02-08T13:22:31.087Z,2.50
2018-02-08T13:24:59.440Z,2.30
2018-02-08T13:27:28.674Z,1.90
2018-02-08T13:29:57.056Z,1.80
2018-02-08T13:32:25.423Z,1.80
2018-02-08T13:34:53.761Z,1.90
2018-02-08T13:37:22.439Z,2.10
2018-02-08T13:42:47.398Z,1.80
2018-02-08T13:45:15.780Z,1.80
2018-02-08T13:47:48.808Z,1.80
2018-02-08T13:50:18.984Z,1.70
2018-02-08T13:52:50.711Z,1.60
2018-02-08T13:55:19.140Z,1.60
2018-02-08T14:03:49.706Z,2.40
2018-02-08T14:06:18.053Z,2.40
2018-02-08T14:08:46.400Z,2.40
2018-02-08T14:11:14.881Z,2.40
2018-02-08T14:13:43.214Z,2.50
2018-02-08T14:16:12.470Z,2.20
2018-02-08T14:18:41.576Z,2.20
2018-02-08T14:21:10.026Z,2.10
2018-02-08T14:23:38.451Z,1.90
2018-02-08T14:26:06.880Z,1.90
2018-02-08T14:28:35.215Z,2.10
2018-02-08T14:31:04.471Z,3.00
2018-02-08T14:33:32.840Z,3.00
2018-02-08T14:36:01.228Z,3.40
2018-02-08T14:38:29.582Z,3.40
2018-02-08T14:40:57.918Z,3.20
2018-02-08T14:43:26.251Z,3.50
2018-02-08T14:45:54.622Z,3.70
2018-02-08T14:48:22.970Z,4.00
2018-02-08T14:50:52.104Z,3.80
2018-02-08T14:53:20.521Z,3.80
2018-02-08T14:55:48.904Z,3.70
2018-02-08T14:58:17.239Z,3.40
2018-02-08T15:00:45.597Z,3.30
2018-02-08T15:03:13.951Z,3.00
2018-02-08T15:05:43.070Z,2.60
2018-02-08T15:08:11.445Z,2.60
2018-02-08T15:10:40.630Z,2.60
2018-02-08T15:13:09.027Z,2.50
2018-02-08T15:15:38.135Z,2.30
2018-02-08T15:18:06.483Z,2.30
2018-02-08T15:20:34.835Z,2.10
2018-02-08T15:23:03.184Z,1.80
2018-02-08T15:25:31.543Z,1.60
2018-02-08T15:27:59.970Z,1.40
2018-02-08T15:30:28.338Z,1.30
2018-02-08T15:32:56.715Z,1.10
2018-02-08T15:35:25.113Z,0.90
2018-02-08T15:37:53.510Z,0.80
2018-02-08T15:40:21.887Z,0.70
2018-02-08T15:42:50.268Z,0.60
2018-02-08T15:45:18.631Z,0.60
2018-02-08T15:47:47.060Z,0.40
2018-02-08T15:50:15.395Z,0.40
2018-02-08T15:52:43.790Z,0.30
2018-02-08T15:55:12.956Z,0.20
2018-02-08T15:57:41.302Z,0.20
2018-02-08T16:00:09.698Z,0.20
2018-02-08T16:02:38.057Z,0.10
2018-02-08T16:05:06.416Z,0.00
2018-02-08T16:07:34.803Z,0.00
2018-02-08T16:10:03.923Z,-0.20
2018-02-08T16:12:32.305Z,-0.20
2018-02-08T16:15:00.727Z,-0.20
2018-02-08T16:17:29.157Z,-0.30
2018-02-08T16:19:57.540Z,-0.40
2018-02-08T16:22:25.913Z,-0.50
2018-02-08T16:24:54.269Z,-0.60
2018-02-08T16:27:23.416Z,-0.70
2018-02-08T16:29:51.779Z,-0.70
2018-02-08T16:32:20.208Z,-0.90
2018-02-08T16:34:48.588Z,-1.00
2018-02-08T16:37:17.005Z,-1.00
2018-02-08T16:39:45.402Z,-1.20
2018-02-08T16:42:13.749Z,-1.30
2018-02-08T16:44:42.921Z,-1.50
2018-02-08T16:47:11.291Z,-1.40
2018-02-08T16:49:39.748Z,-1.50
2018-02-08T16:52:08.116Z,-1.60
2018-02-08T16:54:36.678Z,-1.60
2018-02-08T16:57:05.923Z,-1.70
2018-02-08T16:59:35.196Z,-1.80
2018-02-08T17:02:03.560Z,-1.80
2018-02-08T17:04:31.923Z,-1.80
2018-02-08T17:07:01.048Z,-1.90
2018-02-08T17:09:29.408Z,-1.90
2018-02-08T17:11:58.681Z,-2.00
2018-02-08T17:14:27.032Z,-2.00
2018-02-08T17:16:55.416Z,-2.10
2018-02-08T17:19:23.822Z,-2.10
2018-02-08T17:21:52.956Z,-2.20
2018-02-08T17:24:21.368Z,-2.20
2018-02-08T17:26:49.814Z,-2.30
2018-02-08T17:29:18.894Z,-2.40
2018-02-08T17:31:47.306Z,-2.40
2018-02-08T17:34:15.655Z,-2.40
2018-02-08T17:36:44.082Z,-2.40
2018-02-08T17:39:12.432Z,-2.40
2018-02-08T17:41:41.463Z,-2.50
2018-02-08T17:44:09.820Z,-2.50
2018-02-08T17:46:38.221Z,-2.50
2018-02-08T17:49:06.564Z,-2.50
2018-02-08T17:51:34.963Z,-2.60
2018-02-08T17:54:03.374Z,-2.60
2018-02-08T17:56:31.738Z,-2.60
2018-02-08T17:59:00.090Z,-2.60
2018-02-08T18:01:28.485Z,-2.70
2018-02-08T18:03:56.840Z,-2.70
2018-02-08T18:06:25.223Z,-2.70
2018-02-08T18:08:53.585Z,-2.70
2018-02-08T18:11:21.972Z,-2.80
2018-02-08T18:13:50.413Z,-2.80
2018-02-08T18:16:18.755Z,-2.80
2018-02-08T18:18:47.140Z,-2.80
2018-02-08T18:21:15.504Z,-2.80
2018-02-08T18:23:43.855Z,-2.80
2018-02-08T18:26:12.204Z,-2.80
2018-02-08T18:28:40.556Z,-2.80
2018-02-08T18:31:08.905Z,-2.90
2018-02-08T18:33:37.280Z,-2.80
2018-02-08T18:36:05.793Z,-2.80
2018-02-08T18:38:34.161Z,-2.80
2018-02-08T18:41:02.529Z,-2.80
2018-02-08T18:43:30.960Z,-2.80
2018-02-08T18:45:59.351Z,-2.80
2018-02-08T18:48:27.789Z,-2.80
2018-02-08T18:50:56.131Z,-2.80
2018-02-08T18:53:24.597Z,-2.80
2018-02-08T18:55:52.916Z,-2.80
2018-02-08T18:58:21.320Z,-2.80
2018-02-08T19:00:49.687Z,-2.90
2018-02-08T19:03:18.068Z,-2.90
2018-02-08T19:05:46.542Z,-2.90
2018-02-08T19:08:15.731Z,-2.90
2018-02-08T19:10:44.095Z,-3.00
2018-02-08T19:13:12.450Z,-3.00
2018-02-08T19:15:40.808Z,-3.00
2018-02-08T19:18:09.162Z,-3.00
2018-02-08T19:20:37.530Z,-3.00
2018-02-08T19:23:05.916Z,-3.00
2018-02-08T19:25:34.306Z,-3.00
2018-02-08T19:28:02.654Z,-3.00
2018-02-08T19:30:31.004Z,-3.10
2018-02-08T19:33:00.132Z,-3.00
2018-02-08T19:35:28.502Z,-3.10
2018-02-08T19:37:56.868Z,-3.00
2018-02-08T19:40:25.992Z,-3.10
2018-02-08T19:42:54.349Z,-3.10
2018-02-08T19:45:23.465Z,-3.10
2018-02-08T19:47:51.838Z,-3.10
2018-02-08T19:50:20.951Z,-3.10
2018-02-08T19:52:49.322Z,-3.10
2018-02-08T19:55:17.846Z,-3.10
2018-02-08T19:57:46.199Z,-3.10
2018-02-08T20:00:14.761Z,-3.10
2018-02-08T20:02:43.164Z,-3.10
2018-02-08T20:05:11.520Z,-3.10
2018-02-08T20:07:39.921Z,-3.20
2018-02-08T20:10:08.295Z,-3.10
2018-02-08T20:12:36.679Z,-3.20
2018-02-08T20:15:05.024Z,-3.20
2018-02-08T20:17:34.138Z,-3.10
2018-02-08T20:20:02.552Z,-3.20
2018-02-08T20:22:30.900Z,-3.20
2018-02-08T20:24:59.335Z,-3.20
2018-02-08T20:27:27.768Z,-3.20
2018-02-08T20:29:56.653Z,-3.20
2018-02-08T20:32:25.030Z,-3.20
2018-02-08T20:34:53.392Z,-3.20
2018-02-08T20:37:22.515Z,-3.20
2018-02-08T20:39:50.874Z,-3.20
2018-02-08T20:42:25.025Z,-3.20
2018-02-08T20:44:53.385Z,-3.20
2018-02-08T20:47:21.748Z,-3.20
2018-02-08T20:49:55.844Z,-3.10
2018-02-08T20:52:24.984Z,-3.10
2018-02-08T20:54:53.334Z,-3.10
2018-02-08T20:57:21.750Z,-3.10
2018-02-08T20:59:50.216Z,-3.10
2018-02-08T21:02:18.615Z,-3.20
2018-02-08T21:04:46.973Z,-3.10
2018-02-08T21:07:15.330Z,-3.10
2018-02-08T21:09:43.699Z,-3.10
2018-02-08T21:12:12.838Z,-3.10
2018-02-08T21:14:41.183Z,-3.10
2018-02-08T21:17:10.291Z,-3.20
2018-02-08T21:19:38.676Z,-3.20
2018-02-08T21:22:07.263Z,-3.20
2018-02-08T21:24:35.642Z,-3.20
2018-02-08T21:27:04.027Z,-3.20
2018-02-08T21:29:32.372Z,-3.20
2018-02-08T21:32:01.512Z,-3.20
2018-02-08T21:34:29.868Z,-3.20
2018-02-08T21:36:58.210Z,-3.20
2018-02-08T21:39:26.721Z,-3.20
2018-02-08T21:41:55.116Z,-3.20
2018-02-08T21:44:23.480Z,-3.30
2018-02-08T21:46:51.907Z,-3.30
2018-02-08T21:49:20.276Z,-3.30
2018-02-08T21:51:48.647Z,-3.30
2018-02-08T21:54:17.119Z,-3.30
2018-02-08T21:56:45.523Z,-3.30
2018-02-08T21:59:13.876Z,-3.30
2018-02-08T22:01:42.264Z,-3.30
2018-02-08T22:04:10.612Z,-3.30
2018-02-08T22:06:39.022Z,-3.30
2018-02-08T22:09:07.396Z,-3.30
2018-02-08T22:11:35.781Z,-3.30
2018-02-08T22:14:04.122Z,-3.30
2018-02-08T22:16:32.476Z,-3.30
2018-02-08T22:19:00.923Z,-3.40
2018-02-08T22:21:29.285Z,-3.40
2018-02-08T22:23:57.637Z,-3.40
2018-02-08T22:26:26.751Z,-3.40
2018-02-08T22:28:55.086Z,-3.40
2018-02-08T22:31:23.471Z,-3.50
2018-02-08T22:33:51.907Z,-3.50
2018-02-08T22:36:20.281Z,-3.50
2018-02-08T22:38:48.832Z,-3.40
2018-02-08T22:41:18.021Z,-3.40
2018-02-08T22:43:47.356Z,-3.40
2018-02-08T22:46:15.739Z,-3.40
2018-02-08T22:48:44.118Z,-3.40
2018-02-08T22:51:12.473Z,-3.40
2018-02-08T22:53:41.601Z,-3.40
2018-02-08T22:56:09.958Z,-3.50
2018-02-08T22:58:38.317Z,-3.50
2018-02-08T23:01:08.119Z,-3.50
2018-02-08T23:03:36.473Z,-3.50
2018-02-08T23:06:04.904Z,-3.60
2018-02-08T23:08:33.318Z,-3.60
2018-02-08T23:11:01.738Z,-3.60
2018-02-08T23:13:30.125Z,-3.60
2018-02-08T23:15:59.248Z,-3.50
2018-02-08T23:18:27.656Z,-3.50
2018-02-08T23:20:56.079Z,-3.50
2018-02-08T23:23:25.208Z,-3.50
2018-02-08T23:25:53.577Z,-3.50
2018-02-08T23:28:22.698Z,-3.50
2018-02-08T23:30:51.036Z,-3.50
2018-02-08T23:33:20.166Z,-3.50
2018-02-08T23:35:48.530Z,-3.40
2018-02-08T23:38:16.932Z,-3.50
2018-02-08T23:40:45.309Z,-3.60
2018-02-08T23:43:13.668Z,-3.50
2018-02-08T23:45:42.029Z,-3.60
2018-02-08T23:48:11.147Z,-3.60
2018-02-08T23:50:39.528Z,-3.60
2018-02-08T23:53:07.881Z,-3.50
2018-02-08T23:55:37.004Z,-3.40
2018-02-08T23:58:05.351Z,-3.40
